San Luis Obispo, CA

2:32 PM PDT on September 18, 2014 (GMT -0700)
Vandenberg AFB | Change Station
CLOSE
Current Station
Airport
Location: Vandenberg AFB,
Elevation: 367 ft
Nearby Weather Stations

Elev 367 ft 34.74 °N, 120.58 °W | Updated 37 minutes ago

Mostly Cloudy
Mostly Cloudy
75 °F
Feels Like 75 °F
N
12
Wind Variable Wind from WNW

Today
High -- | Low -- °F
--% Chance of Precip.
Yesterday
High -- | Low -- °F
Precip. -- in
6:47 AM 7:05 PM
Waning Crescent, 24% visible
Pressure 29.86 in
Visibility 10.0 miles
Clouds Few 1200 ft
Scattered Clouds 2000 ft
Dew Point 63 °F
Humidity 66%
Rainfall 0.00 in
Snow Depth 1 in , 0 in , 0 in
UV 7 out of 12
Pollen 7.00 out of 12
Air Quality Not available.
Flu Activity Not available.
METAR KVBG 182055Z 29010KT 10SM FEW012 SCT020 24/17 A2989 RMK AO2A SLP110 T02390172 58010

More Conditions Fewer Conditions

Pressure 29.86 in
Visibility 10.0 miles
Clouds Few 1200 ft
Scattered Clouds 2000 ft
Dew Point 63 °F
Humidity 66%
Rainfall 0.00 in
Snow Depth 1 in , 0 in , 0 in
UV 7 out of 12
Pollen 7.00 out of 12
Air Quality Not available.
Flu Activity Not available.
METAR KVBG 182055Z 29010KT 10SM FEW012 SCT020 24/17 A2989 RMK AO2A SLP110 T02390172 58010

More Conditions Fewer Conditions

10-Day Weather Forecast

Almanac

Astronomy

Sep. 18, 2014 Rise Set
Actual Time 6:47 AM PDT 7:05 PM PDT
Civil Twilight 6:22 AM PDT 7:30 PM PDT
Nautical Twilight 5:52 AM PDT 8:00 PM PDT
Astronomical Twilight 5:22 AM PDT 8:30 PM PDT
Moon 1:52 AM PDT 3:51 PM PDT
Length of Visible Light 13h 08m
Length of Day
12h 17m
Tomorrow will be 2m 12s shorter.
Waning Crescent, 24% of the Moon is Illuminated
Today
Waning Crescent
Sep 24
New
Oct 1
First Quarter
Oct 8
Full
Oct 15
Last Quarter

Today's Extremes

State Highs State Lows

Community

WunderPhotos

Upload Photos

1,754,452 photos uploaded!

WunderBlogs® & News

Nearby

Snow Depth

Station Depth Elevation
CSS Lab 1 in 6900 ft
Summit Meadow 0 in 9122 ft
Leavitt Meadows 0 in 7200 ft
Adin Mountain 0 in 6200 ft
Burnside Lake 0 in 8139 ft

Earthquake Activity

City Distance Mag. Time & Date
No recent earthquake activity has been reported nearby.
Minimum magnitude displayed is 2.5.

Coastal Water Temperatures

Place Temperature
No Stations Reporting

Nearby Weather Stations